Flight Track Log - Related Links

Times and Time Zones

All times are in EDT time to prevent confusion due to time zone crossing. See the AAL396 flight status page for this flight to view local times or setup timezone preferences in your user account.

Time Position Orientation Groundspeed Altitude Reporting Facility
EDT Latitude Longitude Course Direction KTS MPH feet Rate Location/Type
Thu 09:52:06 PM 32.8645 -97.0305 179° South 162 186 2,100  Level FlightAware ADS-B
Thu 09:52:25 PM 32.8494 -97.0254 158° South 182 209 2,400 1,220 Climbing FlightAware ADS-B
Thu 09:53:05 PM 32.8139 -97.0091 158° South 225 259 3,300 1,500 Climbing FlightAware ADS-B
Thu 09:53:25 PM 32.8067 -97.0058 159° South 239 275 3,900 2,195 Climbing FlightAware ADS-B
Thu 09:53:46 PM 32.7901 -96.9965 114° Southeast 257 296 4,800 2,700 Climbing FlightAware ADS-B
Thu 09:54:05 PM 32.7697 -96.9512 110° East 258 297 5,700 2,421 Climbing FlightAware ADS-B
Thu 09:54:43 PM 32.7669 -96.8948 88° East 286 329 7,100 2,300 Climbing FlightAware ADS-B
Thu 09:55:05 PM 32.7671 -96.8869 88° East 290 334 8,000 2,754 Climbing FlightAware ADS-B
Thu 09:55:44 PM 32.7840 -96.7957 64° Northeast 303 349 9,900 2,535 Climbing FlightAware ADS-B
Thu 09:56:16 PM 32.8011 -96.7530 64° Northeast 315 362 11,000 1,645 Climbing FlightAware ADS-B
Thu 09:56:46 PM 32.8226 -96.6995 64° Northeast 344 396 11,600 1,080 Climbing FlightAware ADS-B
Thu 09:57:06 PM 32.8364 -96.6653 64° Northeast 361 415 11,900 1,300 Climbing FlightAware ADS-B
Thu 09:57:46 PM 32.8660 -96.5916 64° Northeast 384 442 12,900 1,565 Climbing FlightAware ADS-B
Thu 09:58:15 PM 32.8912 -96.5293 64° Northeast 396 456 13,700 1,900 Climbing FlightAware ADS-B
Thu 09:58:46 PM 32.9156 -96.4683 64° Northeast 400 460 14,800 1,920 Climbing FlightAware ADS-B
Thu 09:59:05 PM 32.9260 -96.4429 64° Northeast 403 464 15,300 1,800 Climbing FlightAware ADS-B
Thu 09:59:46 PM 32.9633 -96.3486 67° East 414 476 16,600 1,869 Climbing FlightAware ADS-B
Thu 10:00:06 PM 32.9739 -96.3021 80° East 414 476 17,200 1,800 Climbing FlightAware ADS-B
Thu 10:00:36 PM 32.9832 -96.2358 80° East 418 481 18,100 1,600 Climbing FlightAware ADS-B
Thu 10:01:06 PM 32.9930 -96.1667 80° East 425 489 18,800 1,347 Climbing FlightAware ADS-B
Thu 10:01:25 PM 32.9983 -96.1288 80° East 428 493 19,200 1,600 Climbing FlightAware ADS-B
Thu 10:02:06 PM 33.0126 -96.0248 80° East 434 499 20,400 1,775 Climbing FlightAware ADS-B
Thu 10:02:36 PM 33.0220 -95.9567 80° East 433 498 21,300 1,400 Climbing FlightAware ADS-B
Thu 10:03:06 PM 33.0319 -95.8839 80° East 442 509 21,800 1,200 Climbing FlightAware ADS-B
Thu 10:03:26 PM 33.0374 -95.8430 80° East 443 510 22,300 1,322 Climbing FlightAware ADS-B
Thu 10:04:05 PM 33.0489 -95.7576 80° East 448 516 23,100 1,268 Climbing FlightAware ADS-B
Thu 10:04:37 PM 33.0612 -95.6665 80° East 451 519 23,800 1,279 Climbing FlightAware ADS-B (KHOU)
Thu 10:05:06 PM 33.0710 -95.5948 79° East 455 524 24,400 1,078 Climbing FlightAware ADS-B (KHOU)
Thu 10:06:45 PM 33.1321 -95.3739 70° East 470 541 26,100 1,088 Climbing FlightAware ADS-B
Thu 10:07:57 PM 33.1917 -95.1749 70° East 478 550 27,500 1,102 Climbing FlightAware ADS-B (KHOU)
Thu 10:08:23 PM 33.2072 -95.1220 70° East 481 554 27,900 1,139 Climbing FlightAware ADS-B (KHOU)
Thu 10:09:16 PM 33.2514 -94.9731 70° East 484 557 29,000 1,229 Climbing FlightAware ADS-B (KHOU)
Thu 10:09:46 PM 33.2729 -94.9006 70° East 487 560 29,600 1,200 Climbing FlightAware ADS-B (KHOU)
Thu 10:10:11 PM 33.2906 -94.8410 70° East 487 560 30,100 1,600 Climbing FlightAware ADS-B (KHOU)
Thu 10:10:46 PM 33.3172 -94.7505 70° East 481 554 31,200 1,778 Climbing FlightAware ADS-B (KHOU)
Thu 10:11:05 PM 33.3292 -94.7097 72° East 476 548 31,700 1,500 Climbing FlightAware ADS-B
Thu 10:11:46 PM 33.3621 -94.5973 70° East 481 554 32,700 1,690 Climbing FlightAware ADS-B (KHOU)
Thu 10:12:16 PM 33.3838 -94.5228 70° East 473 544 33,700 1,543 Climbing FlightAware ADS-B (KHOU)
Thu 10:12:56 PM 33.4128 -94.4238 70° East 475 547 34,500 1,385 Climbing FlightAware ADS-B (KHOU)
Thu 10:13:47 PM 33.4494 -94.2969 71° East 474 545 35,800 1,520 Climbing FlightAware ADS-B
Thu 10:14:11 PM 33.4658 -94.2400 70° East 475 547 36,400 1,650 Climbing FlightAware ADS-B (KHOU)
Thu 10:14:27 PM 33.4783 -94.1968 71° East 467 537 36,900 1,029 Climbing FlightAware ADS-B
Thu 10:14:46 PM 33.4916 -94.1508 70° East 469 540 37,000 140 Climbing FlightAware ADS-B (KHOU)
Thu 10:15:10 PM 33.5085 -94.0929 70° East 472 543 37,000  Level FlightAware ADS-B
Thu 10:15:50 PM 33.5438 -93.9971 65° Northeast 474 545 37,000  Level FlightAware ADS-B
Thu 10:16:10 PM 33.5622 -93.9499 65° Northeast 472 543 37,000  Level FlightAware ADS-B (KHOU)
Thu 10:16:30 PM 33.5793 -93.9054 65° Northeast 470 541 37,000  Level FlightAware ADS-B
Thu 10:16:57 PM 33.6039 -93.8422 65° Northeast 468 539 37,000  Level FlightAware ADS-B (KHOU)
Thu 10:17:26 PM 33.6306 -93.7729 65° Northeast 466 536 37,000  Level FlightAware ADS-B (KHOU)
Thu 10:17:44 PM 33.6466 -93.7318 65° Northeast 467 537 37,000  Level FlightAware ADS-B
Thu 10:18:27 PM 33.6874 -93.6259 65° Northeast 463 533 37,000  Level FlightAware ADS-B
Thu 10:19:11 PM 33.7256 -93.5262 65° Northeast 462 532 37,000  Level FlightAware ADS-B
Thu 10:19:45 PM 33.7486 -93.4661 65° Northeast 465 535 37,000  Level Fort Worth Center
Thu 10:20:47 PM 33.8022 -93.3281 65° Northeast 462 532 37,000  Level Fort Worth Center
Thu 10:21:48 PM 33.8550 -93.1875 66° East 460 529 37,000  Level Fort Worth Center
Thu 10:22:49 PM 33.9086 -93.0461 65° Northeast 460 529 37,000  Level Fort Worth Center
Thu 10:23:41 PM 33.9625 -92.9064 65° Northeast 463 533 37,000  Level Memphis Center
Thu 10:24:43 PM 34.0153 -92.7639 66° East 464 534 37,000  Level Memphis Center
Thu 10:25:44 PM 34.0717 -92.6108 66° East 464 534 37,000  Level Memphis Center
Thu 10:26:45 PM 34.1256 -92.4678 65° Northeast 465 535 37,000  Level Memphis Center
Thu 10:27:46 PM 34.1778 -92.3267 66° East 465 535 37,000  Level Memphis Center
Thu 10:28:47 PM 34.2300 -92.1844 66° East 465 535 37,000  Level Memphis Center
Thu 10:29:48 PM 34.2836 -92.0439 65° Northeast 465 535 37,000  Level Memphis Center
Thu 10:30:49 PM 34.3342 -91.9028 67° East 462 532 37,000  Level Memphis Center
Thu 10:31:50 PM 34.3850 -91.7619 66° East 461 531 37,000  Level Memphis Center
Thu 10:32:52 PM 34.4381 -91.6153 66° East 459 528 37,000  Level Memphis Center
Thu 10:33:53 PM 34.4889 -91.4783 66° East 450 518 37,000  Level Memphis Center
Thu 10:34:54 PM 34.5381 -91.3408 67° East 450 518 37,000  Level Memphis Center
Thu 10:35:55 PM 34.5881 -91.2033 66° East 448 516 37,000  Level Memphis Center
Thu 10:36:56 PM 34.6356 -91.0650 67° East 448 516 37,000  Level Memphis Center
Thu 10:37:57 PM 34.6961 -90.8986 66° East 448 516 37,000  Level Memphis Center
Thu 10:38:58 PM 34.7442 -90.7597 67° East 448 516 37,000  Level Memphis Center
Thu 10:39:59 PM 34.7939 -90.6208 66° East 448 516 37,000  Level Memphis Center
Thu 10:41:00 PM 34.8425 -90.4839 67° East 447 514 37,000  Level Memphis Center
Thu 10:42:01 PM 34.8914 -90.3436 67° East 447 514 37,000  Level Memphis Center
Thu 10:43:03 PM 34.9408 -90.2031 67° East 447 514 37,000  Level Memphis Center
Thu 10:44:04 PM 34.9903 -90.0622 67° East 449 517 37,000  Level Memphis Center
Thu 10:45:05 PM 35.0406 -89.9178 67° East 450 518 37,000  Level Memphis Center
Thu 10:46:06 PM 35.0911 -89.7742 67° East 451 519 37,000  Level Memphis Center
Thu 10:51:49 PM 35.3922 -88.9727 48° Northeast 458 527 37,000  Level FlightAware ADS-B (KORD)
Thu 10:52:18 PM 35.4236 -88.9286 49° Northeast 458 527 37,000  Level FlightAware ADS-B (KORD)
Thu 10:52:50 PM 35.4799 -88.8490 48° Northeast 458 527 37,000  Level FlightAware ADS-B (KORD)
Thu 10:53:19 PM 35.5182 -88.7950 49° Northeast 460 529 37,000  Level FlightAware ADS-B (KORD)
Thu 10:53:46 PM 35.5538 -88.7448 49° Northeast 462 532 37,000  Level FlightAware ADS-B (KORD)
Thu 10:54:20 PM 35.6031 -88.6750 49° Northeast 462 532 37,000  Level FlightAware ADS-B (KORD)
Thu 10:55:20 PM 35.6886 -88.5538 49° Northeast 462 532 37,000  Level FlightAware ADS-B (KORD)
Thu 10:55:50 PM 35.7282 -88.4976 49° Northeast 462 532 37,000  Level FlightAware ADS-B (KORD)
Thu 10:56:20 PM 35.7718 -88.4358 49° Northeast 462 532 37,000  Level FlightAware ADS-B (KORD)
Thu 10:57:20 PM 35.8553 -88.3165 49° Northeast 461 531 37,000  Level FlightAware ADS-B (KORD)
Thu 10:57:50 PM 35.8938 -88.2615 49° Northeast 462 532 37,000  Level FlightAware ADS-B (KORD)
Thu 10:58:20 PM 35.9403 -88.1950 49° Northeast 461 531 37,000  Level FlightAware ADS-B (KORD)
Thu 10:58:50 PM 35.9803 -88.1375 49° Northeast 460 529 37,000  Level FlightAware ADS-B (KORD)
Thu 10:59:20 PM 36.0219 -88.0774 49° Northeast 459 528 37,000  Level FlightAware ADS-B (KORD)
Thu 10:59:50 PM 36.0608 -88.0215 49° Northeast 458 527 37,000 -667 Level FlightAware ADS-B (KORD)
Thu 11:00:50 PM 36.1455 -87.8993 49° Northeast 463 533 36,000 -1,000 Descending FlightAware ADS-B (KORD)
Thu 11:01:20 PM 36.1890 -87.8357 49° Northeast 466 536 35,500 -900 Descending FlightAware ADS-B (KORD)
Thu 11:01:50 PM 36.2278 -87.7796 49° Northeast 468 539 35,100 -400 Descending FlightAware ADS-B (KORD)
Thu 11:02:35 PM 36.2948 -87.6824 49° Northeast 468 539 35,000 -81 Descending FlightAware ADS-B (KORD)
Thu 11:03:04 PM 36.3353 -87.6236 49° Northeast 466 536 35,000  Level FlightAware ADS-B (KORD)
Thu 11:03:35 PM 36.3718 -87.5702 49° Northeast 467 537 35,000  Level FlightAware ADS-B (KORD)
Thu 11:04:05 PM 36.4191 -87.5008 49° Northeast 468 539 35,000  Level FlightAware ADS-B (KORD)
Thu 11:04:34 PM 36.4620 -87.4383 49° Northeast 470 541 35,000 -407 Level FlightAware ADS-B (KORD)
Thu 11:05:04 PM 36.5037 -87.3768 49° Northeast 466 536 34,600 -787 Descending FlightAware ADS-B (KORD)
Thu 11:05:35 PM 36.5399 -87.3235 49° Northeast 466 536 34,200 -1,014 Descending FlightAware ADS-B (KORD)
Thu 11:06:15 PM 36.6023 -87.2317 50° Northeast 469 540 33,400 -1,130 Descending FlightAware ADS-B (KORD)
Thu 11:06:44 PM 36.6430 -87.1717 49° Northeast 472 543 32,900 -1,000 Descending FlightAware ADS-B (KORD)
Thu 11:07:15 PM 36.6876 -87.1059 50° Northeast 475 547 32,400 -943 Descending FlightAware ADS-B (KORD)
Thu 11:07:54 PM 36.7388 -87.0295 50° Northeast 479 551 31,800 -1,800 Descending FlightAware ADS-B (KORD)
Thu 11:10:25 PM 36.9543 -86.7080 50° Northeast 481 554 26,700 -2,697 Descending FlightAware ADS-B (KORD)
Thu 11:12:41 PM 37.1125 -86.4701 50° Northeast 475 547 18,900 -3,262 Descending FlightAware ADS-B
Thu 11:13:40 PM 37.2309 -86.2909 51° Northeast 450 518 16,100 -2,331 Descending FlightAware ADS-B
Thu 11:14:42 PM 37.3090 -86.1722 51° Northeast 428 493 14,200 -1,820 Descending FlightAware ADS-B
Thu 11:15:42 PM 37.3370 -86.1295 51° Northeast 424 488 12,400 -1,636 Descending FlightAware ADS-B
Thu 11:16:43 PM 37.4446 -85.9650 51° Northeast 371 427 10,900 -1,180 Descending FlightAware ADS-B
Thu 11:17:44 PM 37.5137 -85.8583 51° Northeast 328 377 10,000 -944 Descending FlightAware ADS-B
Thu 11:18:31 PM 37.5583 -85.7900 51° Northeast 299 344 9,200 -1,221 Descending FlightAware ADS-B
Thu 11:19:37 PM 37.6151 -85.7021 51° Northeast 291 335 7,700 -1,130 Descending FlightAware ADS-B
Thu 11:20:49 PM 37.6880 -85.6639 North 270 311 6,600 -812 Descending FlightAware ADS-B
Thu 11:21:50 PM 37.7675 -85.6477 North 228 262 5,900 -590 Descending FlightAware ADS-B
Thu 11:22:51 PM 37.8255 -85.6356 10° North 192 221 5,400 -857 Descending FlightAware ADS-B
Thu 11:23:56 PM 37.8806 -85.6484 346° North 193 222 4,100 -714 Descending FlightAware ADS-B
Thu 11:24:57 PM 37.9339 -85.6658 345° North 194 223 3,900 -197 Descending FlightAware ADS-B
Thu 11:25:58 PM 37.9870 -85.6832 345° North 195 224 3,700 -629 Descending FlightAware ADS-B
Thu 11:27:01 PM 38.0407 -85.7006 346° North 190 219 2,600 -955 Descending FlightAware ADS-B
Thu 11:28:10 PM 38.0935 -85.7182 345° North 147 169 1,600 -787 Descending FlightAware ADS-B
Thu 11:29:03 PM 38.1248 -85.7284 346° North 146 168 1,000 -679 Descending FlightAware ADS-B

Login

Don't have an account? Register now (free) for customized features, flight alerts, and more!